Time;durP1;ratioP1;P1;durP2;ratioP2;P2;SDS_P1;SDS_P2;PMS_P1;PMS_P2;Temp;Humidity;BMP_temperature;BMP_pressure;BME280_temperature;BME280_humidity;BME280_pressure;Samples;Min_cycle;Max_cycle;Signal;HPM_P1;HPM_P2
2021/01/11 00:01:03;;;;;;;;;;;;;;;1.46;100.00;92686.25;5011287;28;20049;-87
2021/01/11 00:03:29;;;;;;;9.57;6.45;;;;;;;1.29;100.00;92662.78;4992122;28;19921;-86
2021/01/11 00:05:56;;;;;;;8.23;5.30;;;;;;;1.40;100.00;92684.41;5040144;28;20049;-87
2021/01/11 00:08:23;;;;;;;17.00;8.65;;;;;;;1.40;100.00;92678.53;5051395;28;20049;-88
2021/01/11 00:10:50;;;;;;;13.68;8.50;;;;;;;1.38;100.00;92686.28;5051336;28;20041;-88
2021/01/11 00:13:16;;;;;;;16.98;8.20;;;;;;;1.41;100.00;92680.13;5050844;28;20049;-89
2021/01/11 00:15:42;;;;;;;;;;;;;;;1.42;100.00;92669.81;5051449;28;20875;-89
2021/01/11 00:18:08;;;;;;;20.95;9.55;;;;;;;1.40;100.00;92666.69;5050902;28;19931;-90
2021/01/11 00:20:35;;;;;;;15.65;8.50;;;;;;;1.42;100.00;92669.81;5050673;28;20547;-88
2021/01/11 00:23:01;;;;;;;;;;;;;;;1.46;100.00;92677.88;5050766;28;20052;-88
2021/01/11 00:25:28;;;;;;;11.82;6.97;;;;;;;1.45;100.00;92661.88;5047790;28;19971;-87
2021/01/11 00:27:54;;;;;;;21.55;7.95;;;;;;;1.44;100.00;92651.94;5044717;28;20064;-88
2021/01/11 00:30:22;;;;;;;14.70;7.55;;;;;;;1.57;100.00;92676.72;5038335;28;20049;-88
2021/01/11 00:32:48;;;;;;;12.38;7.63;;;;;;;1.52;100.00;92656.94;5030609;28;20103;-89
2021/01/11 00:35:14;;;;;;;20.20;7.72;;;;;;;1.54;100.00;92659.31;5030607;28;20045;-87
2021/01/11 00:37:40;;;;;;;;;;;;;;;1.56;100.00;92654.88;5031074;28;20050;-88
2021/01/11 00:40:08;;;;;;;13.32;7.93;;;;;;;1.53;100.00;92655.22;5030625;28;19921;-88
2021/01/11 00:42:36;;;;;;;16.30;8.88;;;;;;;1.49;100.00;92642.13;5030583;28;20459;-87
2021/01/11 00:45:03;;;;;;;15.23;9.52;;;;;;;1.44;100.00;92619.06;5030717;28;20045;-87
2021/01/11 00:47:29;;;;;;;15.82;7.35;;;;;;;1.56;100.00;92624.50;5030376;28;20053;-87
2021/01/11 00:49:55;;;;;;;;;;;;;;;1.57;100.00;92626.84;5031106;28;20041;-88
2021/01/11 00:52:21;;;;;;;16.88;7.68;;;;;;;1.51;100.00;92624.22;5030645;28;19928;-87
2021/01/11 00:54:47;;;;;;;;;;;;;;;1.49;100.00;92621.88;5049397;28;20098;-87
2021/01/11 00:57:13;;;;;;;6.45;4.38;;;;;;;1.42;100.00;92593.09;5050340;28;20258;-87
2021/01/11 00:59:40;;;;;;;8.32;5.60;;;;;;;1.42;100.00;92583.78;5050236;28;20088;-87
2021/01/11 01:02:06;;;;;;;9.13;5.28;;;;;;;1.40;100.00;92568.00;5049886;28;20045;-88
2021/01/11 01:04:32;;;;;;;;;;;;;;;1.53;100.00;92600.31;5050606;28;20041;-87
2021/01/11 01:07:02;;;;;;;9.30;5.82;;;;;;;1.52;100.00;92606.31;5049982;28;19931;-86
2021/01/11 01:09:29;;;;;;;13.40;7.60;;;;;;;1.49;100.00;92563.66;5050117;28;20045;-87
2021/01/11 01:11:55;;;;;;;13.52;5.82;;;;;;;1.49;100.00;92558.59;5050148;28;20098;-86
2021/01/11 01:14:21;;;;;;;;;;;;;;;1.53;100.00;92552.22;5052301;28;20052;-88
2021/01/11 01:16:48;;;;;;;15.10;6.05;;;;;;;1.51;100.00;92554.13;5053553;28;20365;-87
2021/01/11 01:19:14;;;;;;;14.27;7.00;;;;;;;1.57;100.00;92563.56;5053740;28;20048;-87
2021/01/11 01:21:40;;;;;;;12.43;5.72;;;;;;;1.66;100.00;92568.59;5053417;28;20413;-88
2021/01/11 01:24:07;;;;;;;8.68;5.18;;;;;;;1.64;100.00;92585.66;5038722;28;20053;-87
2021/01/11 01:26:34;;;;;;;14.75;7.78;;;;;;;1.72;100.00;92616.00;5039842;28;20052;-87
2021/01/11 01:29:00;;;;;;;;;;;;;;;1.82;100.00;92623.38;5043678;28;20053;-87
2021/01/11 01:31:26;;;;;;;23.90;12.48;;;;;;;1.72;100.00;92631.97;5043739;28;19925;-87
2021/01/11 01:33:53;;;;;;;30.00;13.27;;;;;;;1.57;100.00;92651.41;5042367;28;20049;-88
2021/01/11 01:36:19;;;;;;;11.73;6.57;;;;;;;1.50;100.00;92660.59;5051108;28;20052;-86
2021/01/11 01:38:46;;;;;;;16.48;9.32;;;;;;;1.41;100.00;92677.56;5053016;28;20049;-87
2021/01/11 01:41:11;;;;;;;;;;;;;;;1.32;100.00;92694.56;5053458;28;20492;-84
2021/01/11 01:43:38;;;;;;;13.65;6.95;;;;;;;1.23;100.00;92725.88;5052934;28;19955;-85
2021/01/11 01:46:05;;;;;;;17.10;7.40;;;;;;;1.12;100.00;92727.06;5052845;28;20053;-87
2021/01/11 01:48:31;;;;;;;17.65;8.68;;;;;;;0.96;100.00;92740.53;5053072;28;20045;-86
2021/01/11 01:50:59;;;;;;;11.25;6.43;;;;;;;0.84;100.00;92727.44;5052799;28;20482;-85
2021/01/11 01:53:26;;;;;;;13.80;6.13;;;;;;;0.82;100.00;92724.31;5052967;28;20075;-85
2021/01/11 01:55:54;;;;;;;14.00;7.88;;;;;;;0.92;100.00;92732.47;5052573;28;20064;-86
2021/01/11 01:58:21;;;;;;;8.75;6.05;;;;;;;0.94;100.00;92738.19;5052524;28;20505;-85
2021/01/11 02:00:47;;;;;;;12.88;7.20;;;;;;;1.03;100.00;92733.88;5053164;28;20049;-86
2021/01/11 02:03:14;;;;;;;15.18;5.68;;;;;;;1.11;100.00;92728.78;5052755;28;20065;-87
2021/01/11 02:05:40;;;;;;;;;;;;;;;1.09;100.00;92720.56;5053303;28;20041;-88
2021/01/11 02:08:12;;;;;;;6.47;4.30;;;;;;;1.06;100.00;92734.34;5052617;28;19928;-86
2021/01/11 02:10:55;;;;;;;7.68;4.18;;;;;;;1.04;100.00;92740.50;5052540;28;20045;-88
2021/01/11 02:13:50;;;;;;;4.22;2.65;;;;;;;1.04;100.00;92710.97;5052782;28;20059;-88
2021/01/11 02:16:23;;;;;;;3.97;2.38;;;;;;;1.04;100.00;92731.19;5050420;28;20049;-86
2021/01/11 02:18:56;;;;;;;6.22;2.33;;;;;;;0.94;100.00;92712.88;5052485;28;20143;-89
2021/01/11 02:22:03;;;;;;;5.65;3.75;;;;;;;1.03;100.00;92744.78;5052214;28;20044;-88
2021/01/11 02:25:02;;;;;;;4.07;2.03;;;;;;;0.84;100.00;92757.78;5051908;28;20171;-90
2021/01/11 02:27:42;;;;;;;3.05;2.22;;;;;;;0.85;100.00;92777.06;5052014;28;20052;-88
2021/01/11 02:30:12;;;;;;;10.07;5.18;;;;;;;0.69;100.00;92788.00;5052350;28;20143;-88
2021/01/11 02:32:44;;;;;;;7.40;5.40;;;;;;;0.65;100.00;92831.28;5052070;28;20048;-89
2021/01/11 02:35:13;;;;;;;9.43;4.10;;;;;;;0.73;100.00;92854.97;5052065;28;20140;-88
2021/01/11 02:37:39;;;;;;;8.85;4.68;;;;;;;0.77;100.00;92862.09;5052027;28;20053;-89
2021/01/11 02:40:07;;;;;;;7.00;4.20;;;;;;;0.51;100.00;92839.50;5051928;28;20481;-90
2021/01/11 02:42:34;;;;;;;1.48;1.00;;;;;;;0.61;100.00;92839.34;5051906;28;20075;-92
2021/01/11 02:45:00;;;;;;;2.88;1.58;;;;;;;0.54;100.00;92829.06;5054737;28;20063;-89
2021/01/11 02:47:30;;;;;;;;;;;;;;;0.51;100.00;92802.38;5062337;28;20053;-91
2021/01/11 02:49:58;;;;;;;2.20;1.33;;;;;;;0.36;100.00;92763.50;5053116;28;19920;-93
2021/01/11 02:52:35;;;;;;;3.72;1.58;;;;;;;0.63;100.00;92777.56;5054343;28;20102;-93
2021/01/11 02:55:08;;;;;;;1.45;1.13;;;;;;;0.88;100.00;92764.88;5055669;28;20481;-92
2021/01/11 02:57:46;;;;;;;4.00;2.45;;;;;;;0.98;100.00;92726.78;5052635;28;20436;-88
2021/01/11 03:00:15;;;;;;;6.00;1.42;;;;;;;0.86;100.00;92685.88;5052326;28;20049;-90
2021/01/11 03:02:45;;;;;;;1.45;1.00;;;;;;;1.02;100.00;92690.09;5052747;28;20049;-92
2021/01/11 03:05:13;;;;;;;3.85;1.33;;;;;;;1.12;100.00;92687.38;5051360;28;20504;-91
2021/01/11 03:07:40;;;;;;;0.88;0.70;;;;;;;0.99;100.00;92647.44;5051775;28;20507;-91
2021/01/11 03:10:07;;;;;;;2.03;1.05;;;;;;;1.24;100.00;92664.25;5051502;28;20492;-92
2021/01/11 03:12:33;;;;;;;3.78;1.73;;;;;;;1.30;100.00;92658.50;5051135;28;20547;-93
2021/01/11 03:14:59;;;;;;;;;;;;;;;1.30;100.00;92641.56;5051892;28;20489;-91
2021/01/11 03:17:25;;;;;;;8.63;3.10;;;;;;;1.23;100.00;92628.03;5051994;28;19925;-90
2021/01/11 03:19:52;;;;;;;;;;;;;;;1.24;100.00;92628.81;5052390;28;20045;-90
2021/01/11 03:22:18;;;;;;;3.90;2.53;;;;;;;1.20;100.00;92621.56;5052028;28;20380;-92
2021/01/11 03:24:45;;;;;;;4.70;2.90;;;;;;;1.24;100.00;92606.06;5051995;28;20041;-91
2021/01/11 03:27:11;;;;;;;10.65;4.25;;;;;;;1.16;100.00;92562.13;5051768;28;20049;-90
2021/01/11 03:29:37;;;;;;;6.90;3.75;;;;;;;1.22;100.00;92580.91;5053187;28;20051;-90
2021/01/11 03:32:03;;;;;;;;;;;;;;;1.30;100.00;92595.25;5051888;28;20383;-90
2021/01/11 03:34:30;;;;;;;7.47;4.65;;;;;;;1.31;100.00;92590.00;5052331;28;19964;-90
2021/01/11 03:36:57;;;;;;;;;;;;;;;1.36;100.00;92601.38;5052287;28;20072;-90
2021/01/11 03:39:23;;;;;;;5.45;3.70;;;;;;;1.32;100.00;92589.06;5053150;28;19921;-89
2021/01/11 03:41:49;;;;;;;;;;;;;;;1.32;100.00;92591.59;5052813;28;20045;-90
2021/01/11 03:44:15;;;;;;;6.13;2.13;;;;;;;1.36;100.00;92606.44;5052738;28;20257;-91
2021/01/11 03:46:41;;;;;;;;;;;;;;;1.38;100.00;92607.84;5053569;28;20401;-90
2021/01/11 03:49:07;;;;;;;3.22;2.42;;;;;;;1.38;100.00;92629.84;5053244;28;19943;-90
2021/01/11 03:51:33;;;;;;;;;;;;;;;1.41;100.00;92639.63;5053611;28;20107;-89
2021/01/11 03:54:00;;;;;;;9.45;3.53;;;;;;;1.42;100.00;92689.28;5051365;28;19921;-87
2021/01/11 03:56:27;;;;;;;7.20;4.30;;;;;;;1.44;100.00;92697.50;5051148;28;20064;-90
2021/01/11 03:58:53;;;;;;;5.53;3.40;;;;;;;1.56;100.00;92716.41;5051821;28;20049;-90
2021/01/11 04:01:19;;;;;;;6.25;4.25;;;;;;;1.51;100.00;92727.97;5050745;28;20060;-89
2021/01/11 04:03:45;;;;;;;9.55;3.42;;;;;;;1.44;100.00;92728.66;5050672;28;20083;-92
2021/01/11 04:06:11;;;;;;;;;;;;;;;1.39;100.00;92720.75;5051768;28;20131;-91
2021/01/11 04:08:38;;;;;;;11.80;4.82;;;;;;;1.40;100.00;92722.38;5051288;28;19921;-91
2021/01/11 04:11:07;;;;;;;;;;;;;;;1.41;100.00;92736.59;5051708;28;20401;-91
2021/01/11 04:13:33;;;;;;;3.28;1.85;;;;;;;1.31;100.00;92729.19;5051275;28;19943;-93
2021/01/11 04:15:59;;;;;;;;;;;;;;;1.25;100.00;92707.06;5053707;28;20041;-92
2021/01/11 04:18:25;;;;;;;6.57;3.53;;;;;;;1.32;100.00;92685.22;5053235;28;19920;-94
2021/01/11 04:20:52;;;;;;;4.25;2.40;;;;;;;1.37;100.00;92686.44;5052740;28;20075;-90
2021/01/11 04:23:18;;;;;;;;;;;;;;;1.39;100.00;92682.81;5051080;28;20053;-90
2021/01/11 04:25:44;;;;;;;6.63;2.63;;;;;;;1.32;100.00;92697.88;5050539;28;19921;-91
2021/01/11 04:28:11;;;;;;;;;;;;;;;1.29;100.00;92682.25;5052031;28;20056;-91
2021/01/11 04:30:37;;;;;;;5.63;3.28;;;;;;;1.14;100.00;92568.28;5051766;28;19927;-95
2021/01/11 04:33:03;;;;;;;;;;;;;;;1.26;100.00;92459.91;5052729;28;20049;-89
2021/01/11 04:35:29;;;;;;;4.15;1.27;;;;;;;1.19;100.00;92492.69;5051515;28;20262;-90
2021/01/11 04:37:56;;;;;;;2.30;1.30;;;;;;;1.20;100.00;92481.59;5051102;28;20075;-89
2021/01/11 04:40:23;;;;;;;5.35;1.48;;;;;;;1.30;100.00;92506.69;5050485;28;20053;-87
2021/01/11 04:42:56;;;;;;;4.38;3.08;;;;;;;1.41;100.00;92490.31;5050369;28;20512;-88
2021/01/11 04:45:25;;;;;;;4.07;2.97;;;;;;;1.49;100.00;92557.78;5050501;28;20106;-84
2021/01/11 04:47:53;;;;;;;3.28;2.08;;;;;;;1.55;100.00;92550.31;5051942;28;20053;-87
2021/01/11 04:50:20;;;;;;;2.80;2.03;;;;;;;1.56;100.00;92535.91;5054209;28;20041;-88
2021/01/11 04:52:46;;;;;;;8.20;2.17;;;;;;;1.56;100.00;92533.38;5054408;28;20394;-87
2021/01/11 04:55:14;;;;;;;7.35;5.30;;;;;;;1.64;100.00;92537.56;5055223;28;20128;-88
2021/01/11 04:57:50;;;;;;;4.28;1.75;;;;;;;1.33;100.00;92504.59;5054757;28;20056;-87
2021/01/11 05:00:20;;;;;;;4.60;3.33;;;;;;;1.62;100.00;92536.97;5054150;28;20485;-87
2021/01/11 05:02:57;;;;;;;4.05;2.83;;;;;;;1.72;100.00;92555.25;5053717;28;20504;-87
2021/01/11 05:05:24;;;;;;;3.72;1.83;;;;;;;1.87;100.00;92571.22;5053995;28;20084;-87
2021/01/11 05:07:50;;;;;;;3.72;1.98;;;;;;;1.90;100.00;92594.66;5053663;28;20478;-91
2021/01/11 05:10:22;;;;;;;12.57;4.50;;;;;;;1.90;100.00;92603.03;5054126;28;20049;-93
2021/01/11 05:12:59;;;;;;;7.82;4.80;;;;;;;1.81;100.00;92619.25;5053867;28;20052;-86
2021/01/11 05:15:27;;;;;;;10.98;7.13;;;;;;;1.85;100.00;92618.75;5053955;28;20057;-86
2021/01/11 05:17:55;;;;;;;7.32;3.53;;;;;;;1.84;100.00;92609.56;5053716;28;20044;-87
2021/01/11 05:20:26;;;;;;;7.18;2.95;;;;;;;1.91;100.00;92608.88;5053359;28;20056;-87
2021/01/11 05:22:54;;;;;;;5.50;3.63;;;;;;;1.80;100.00;92627.81;5053532;28;20049;-87
2021/01/11 05:25:23;;;;;;;4.95;2.88;;;;;;;1.80;100.00;92625.28;5053574;28;20045;-87
2021/01/11 05:28:10;;;;;;;7.22;3.95;;;;;;;1.85;100.00;92613.69;5053428;28;20429;-86
2021/01/11 05:30:39;;;;;;;9.60;5.25;;;;;;;1.64;100.00;92611.00;5054313;28;20041;-87
2021/01/11 05:33:08;;;;;;;7.75;5.13;;;;;;;1.67;100.00;92629.16;5053282;28;20052;-88
2021/01/11 05:35:36;;;;;;;12.38;5.97;;;;;;;1.74;100.00;92631.81;5053158;28;20440;-86
2021/01/11 05:38:13;;;;;;;10.77;6.15;;;;;;;1.89;100.00;92623.47;5053159;28;20045;-88
2021/01/11 05:40:39;;;;;;;7.25;5.15;;;;;;;1.92;100.00;92613.78;5053271;28;20053;-86
2021/01/11 05:43:05;;;;;;;;;;;;;;;1.97;100.00;92623.41;5053480;28;20063;-85
2021/01/11 05:45:33;;;;;;;9.27;5.03;;;;;;;1.82;100.00;92595.50;5052918;28;20323;-87
2021/01/11 05:48:03;;;;;;;10.93;5.78;;;;;;;1.90;100.00;92613.16;5053160;28;20081;-84
2021/01/11 05:50:32;;;;;;;5.32;3.28;;;;;;;1.88;100.00;92615.06;5052928;28;20485;-86
2021/01/11 05:52:58;;;;;;;7.68;3.33;;;;;;;1.87;100.00;92618.56;5053257;28;20048;-86
2021/01/11 05:55:25;;;;;;;;;;;;;;;1.86;100.00;92629.66;5053264;28;20494;-85
2021/01/11 05:58:02;;;;;;;6.20;4.03;;;;;;;1.86;100.00;92627.13;5052875;28;19924;-85
2021/01/11 06:00:31;;;;;;;11.75;6.03;;;;;;;1.83;100.00;92635.06;5051915;28;20536;-84
2021/01/11 06:02:58;;;;;;;10.50;4.57;;;;;;;1.81;100.00;92622.56;5052625;28;20049;-85
2021/01/11 06:05:26;;;;;;;8.98;4.97;;;;;;;1.82;100.00;92624.16;5052768;28;20463;-85
2021/01/11 06:07:53;;;;;;;11.27;4.20;;;;;;;1.95;100.00;92635.47;5052658;28;20393;-86
2021/01/11 06:10:21;;;;;;;6.38;3.85;;;;;;;1.87;100.00;92649.72;5052639;28;20045;-83
2021/01/11 06:12:48;;;;;;;6.57;3.15;;;;;;;1.77;100.00;92659.34;5052725;28;20052;-86
2021/01/11 06:15:16;;;;;;;12.82;4.68;;;;;;;1.62;100.00;92658.47;5052648;28;20416;-83
2021/01/11 06:17:44;;;;;;;5.70;2.90;;;;;;;1.67;100.00;92662.06;5052568;28;20053;-84
2021/01/11 06:20:14;;;;;;;5.22;3.15;;;;;;;1.74;100.00;92667.25;5052393;28;20049;-86
2021/01/11 06:23:13;;;;;;;3.05;2.10;;;;;;;1.48;100.00;92660.75;5052146;28;20052;-86
2021/01/11 06:25:46;;;;;;;5.72;3.83;;;;;;;1.55;100.00;92660.88;5046069;28;20076;-85
2021/01/11 06:28:13;;;;;;;4.15;2.72;;;;;;;1.68;100.00;92670.47;5052425;28;20053;-84
2021/01/11 06:30:43;;;;;;;6.53;3.60;;;;;;;1.64;100.00;92680.16;5052138;28;20056;-85
2021/01/11 06:33:11;;;;;;;15.57;6.47;;;;;;;1.44;100.00;92641.81;5052032;28;20060;-86
2021/01/11 06:35:40;;;;;;;12.73;4.63;;;;;;;1.57;100.00;92659.75;5052022;28;20045;-85
2021/01/11 06:38:24;;;;;;;7.15;3.40;;;;;;;1.69;100.00;92656.84;5052262;28;20049;-85
2021/01/11 06:40:54;;;;;;;9.10;5.10;;;;;;;1.71;100.00;92660.00;5052325;28;20073;-85
2021/01/11 06:43:22;;;;;;;7.95;4.50;;;;;;;1.78;100.00;92657.56;5051904;28;20053;-85
2021/01/11 06:45:50;;;;;;;8.68;4.72;;;;;;;1.86;100.00;92675.25;5051795;28;20056;-85
2021/01/11 06:48:18;;;;;;;13.10;6.45;;;;;;;1.83;100.00;92652.78;5052071;28;20049;-87
2021/01/11 06:50:47;;;;;;;13.50;7.72;;;;;;;1.94;100.00;92657.44;5051713;28;20102;-85
2021/01/11 06:53:14;;;;;;;9.43;4.90;;;;;;;1.99;100.00;92672.16;5051679;28;20049;-85
2021/01/11 06:55:40;;;;;;;11.90;6.10;;;;;;;2.01;100.00;92682.91;5051780;28;20056;-84
2021/01/11 06:58:08;;;;;;;24.90;8.82;;;;;;;2.05;100.00;92688.41;5051739;28;20053;-85
2021/01/11 07:00:36;;;;;;;23.20;11.45;;;;;;;2.08;100.00;92691.38;5051535;28;20056;-85
2021/01/11 07:03:05;;;;;;;18.00;9.35;;;;;;;2.07;100.00;92709.28;5051910;28;20053;-84
2021/01/11 07:05:39;;;;;;;14.85;7.82;;;;;;;2.07;100.00;92721.94;5051680;28;20049;-84
2021/01/11 07:08:06;;;;;;;11.32;7.30;;;;;;;2.07;100.00;92716.88;5051800;28;20048;-85
2021/01/11 07:10:33;;;;;;;9.63;5.60;;;;;;;2.05;100.00;92718.81;5051335;28;20513;-84
2021/01/11 07:13:25;;;;;;;18.85;9.32;;;;;;;2.10;100.00;92727.50;5039756;28;20041;-84
2021/01/11 07:16:14;;;;;;;9.50;5.53;;;;;;;2.02;100.00;92724.19;5041697;28;20493;-85
2021/01/11 07:18:56;;;;;;;7.90;4.30;;;;;;;2.04;100.00;92733.22;5040363;28;20041;-85
2021/01/11 07:21:26;;;;;;;9.38;5.35;;;;;;;2.08;100.00;92741.28;5040557;28;20136;-84
2021/01/11 07:23:55;;;;;;;6.07;3.92;;;;;;;2.10;100.00;92755.34;5048108;28;20049;-85
2021/01/11 07:26:23;;;;;;;6.75;3.45;;;;;;;1.91;100.00;92743.13;5051238;28;20506;-85
2021/01/11 07:28:55;;;;;;;7.97;3.55;;;;;;;1.83;100.00;92756.63;5051276;28;20049;-85
2021/01/11 07:31:23;;;;;;;17.42;4.75;;;;;;;1.72;100.00;92775.53;5051015;28;20447;-85
2021/01/11 07:34:02;;;;;;;5.55;3.85;;;;;;;1.68;100.00;92775.06;5050812;28;20049;-83
2021/01/11 07:36:32;;;;;;;12.68;6.03;;;;;;;1.77;100.00;92765.69;5050924;28;20452;-85
2021/01/11 07:39:12;;;;;;;13.02;6.90;;;;;;;1.70;100.00;92800.22;5051030;28;20045;-85
2021/01/11 07:41:39;;;;;;;10.30;6.40;;;;;;;1.81;100.00;92811.72;5051018;28;20796;-84
2021/01/11 07:44:24;;;;;;;11.75;6.65;;;;;;;1.72;100.00;92799.09;5051302;28;20076;-88
2021/01/11 07:46:56;;;;;;;8.60;5.25;;;;;;;1.94;100.00;92819.56;5048111;28;20045;-84
2021/01/11 07:49:22;;;;;;;11.90;5.50;;;;;;;1.98;100.00;92820.00;5050761;28;20037;-86
2021/01/11 07:51:50;;;;;;;6.25;4.97;;;;;;;2.00;100.00;92813.06;5050839;28;20053;-85
2021/01/11 07:54:18;;;;;;;3.92;3.13;;;;;;;1.94;100.00;92828.94;5050626;28;20068;-85
2021/01/11 07:56:46;;;;;;;9.93;3.38;;;;;;;1.93;100.00;92829.84;5050508;28;20052;-85
2021/01/11 07:59:13;;;;;;;9.40;4.95;;;;;;;1.86;100.00;92833.06;5050824;28;20049;-84
2021/01/11 08:01:41;;;;;;;10.77;5.30;;;;;;;1.59;100.00;92796.31;5050576;28;20497;-86
2021/01/11 08:04:10;;;;;;;6.18;5.38;;;;;;;1.68;100.00;92813.06;5050537;28;20052;-85
2021/01/11 08:06:57;;;;;;;10.18;5.70;;;;;;;1.59;100.00;92837.59;5050600;28;20049;-85
2021/01/11 08:09:26;;;;;;;9.65;5.50;;;;;;;1.61;100.00;92837.44;5044084;28;20044;-86
2021/01/11 08:12:05;;;;;;;17.85;8.00;;;;;;;1.65;100.00;92836.16;5050563;28;20489;-85
2021/01/11 08:14:31;;;;;;;69.95;28.05;;;;;;;1.54;100.00;92844.09;5050772;28;20044;-85
2021/01/11 08:16:59;;;;;;;21.52;13.00;;;;;;;1.55;100.00;92840.63;5050292;28;20053;-86
2021/01/11 08:19:25;;;;;;;122.15;45.83;;;;;;;1.53;100.00;92850.13;5050910;28;20044;-87
2021/01/11 08:21:56;;;;;;;;;;;;;;;1.67;100.00;92858.78;5051099;28;20053;-85
2021/01/11 08:24:22;;;;;;;28.83;16.08;;;;;;;1.67;100.00;92848.66;5054669;28;19928;-85
2021/01/11 08:26:51;;;;;;;26.05;11.38;;;;;;;1.78;100.00;92842.44;5054918;28;20052;-85
2021/01/11 08:29:18;;;;;;;18.13;9.20;;;;;;;1.92;100.00;92854.41;5054511;28;20044;-87
2021/01/11 08:31:44;;;;;;;20.33;10.75;;;;;;;2.02;100.00;92858.47;5054345;28;20052;-85
2021/01/11 08:34:12;;;;;;;19.25;9.77;;;;;;;2.05;100.00;92853.88;5054231;28;20517;-85
2021/01/11 08:36:38;;;;;;;12.45;7.72;;;;;;;2.18;100.00;92860.91;5054496;28;20049;-86
2021/01/11 08:39:10;;;;;;;16.20;8.93;;;;;;;2.21;100.00;92853.00;5054393;28;20057;-86
2021/01/11 08:41:39;;;;;;;12.23;7.10;;;;;;;2.36;100.00;92880.94;5054376;28;20056;-85
2021/01/11 08:44:06;;;;;;;14.82;8.75;;;;;;;2.43;100.00;92872.66;5054215;28;20049;-85
2021/01/11 08:47:09;;;;;;;33.17;16.63;;;;;;;2.43;100.00;92867.59;5054356;28;20052;-86
2021/01/11 08:49:55;;;;;;;26.27;10.50;;;;;;;2.48;100.00;92885.63;5054203;28;20041;-85
2021/01/11 08:52:27;;;;;;;32.00;15.60;;;;;;;2.48;100.00;92895.78;5054066;28;20053;-85
2021/01/11 08:54:54;;;;;;;17.98;10.80;;;;;;;2.49;100.00;92888.00;5053602;28;20071;-85
2021/01/11 08:57:21;;;;;;;;;;;;;;;2.55;100.00;92884.03;5054203;28;20053;-87
2021/01/11 08:59:52;;;;;;;15.63;7.43;;;;;;;2.60;100.00;92893.66;5052103;28;19966;-90
2021/01/11 09:02:26;;;;;;;19.58;8.30;;;;;;;2.14;100.00;92863.00;5036330;28;20041;-89
2021/01/11 09:04:53;;;;;;;44.15;18.17;;;;;;;2.25;100.00;92871.19;5036893;28;20056;-88
2021/01/11 09:07:31;;;;;;;43.28;18.27;;;;;;;2.26;100.00;92877.81;5034939;28;20053;-88
2021/01/11 09:09:59;;;;;;;25.15;11.15;;;;;;;2.22;100.00;92869.78;5035779;28;20047;-88
2021/01/11 09:12:34;;;;;;;28.33;12.88;;;;;;;2.15;100.00;92879.00;5035574;28;20144;-88
2021/01/11 09:15:01;;;;;;;26.67;11.52;;;;;;;2.26;100.00;92896.38;5033965;28;20151;-88
2021/01/11 09:17:29;;;;;;;26.27;13.13;;;;;;;2.31;100.00;92898.41;5033666;28;20061;-87
2021/01/11 09:19:59;;;;;;;26.52;13.90;;;;;;;2.35;100.00;92881.09;5033412;28;20490;-87
2021/01/11 09:22:31;;;;;;;30.13;14.88;;;;;;;2.48;100.00;92888.16;5033466;28;20401;-88
2021/01/11 09:24:58;;;;;;;19.13;11.30;;;;;;;2.52;100.00;92897.03;5033736;28;20132;-86
2021/01/11 09:27:25;;;;;;;22.10;13.18;;;;;;;2.60;100.00;92907.09;5033483;28;20045;-86
2021/01/11 09:29:51;;;;;;;19.38;9.70;;;;;;;2.65;100.00;92921.84;5033339;28;20394;-88
2021/01/11 09:32:18;;;;;;;20.83;11.45;;;;;;;2.59;100.00;92908.06;5033253;28;20041;-88
2021/01/11 09:34:44;;;;;;;12.63;8.32;;;;;;;2.47;100.00;92884.84;5032178;28;20140;-88
2021/01/11 09:37:12;;;;;;;18.70;10.25;;;;;;;2.19;100.00;92879.47;5033763;28;20108;-88
2021/01/11 09:39:38;;;;;;;23.73;10.55;;;;;;;2.24;100.00;92895.75;5033838;28;20061;-87
2021/01/11 09:42:04;;;;;;;;;;;;;;;2.24;100.00;92894.97;5033816;28;20049;-87
2021/01/11 09:44:31;;;;;;;24.63;11.02;;;;;;;2.19;100.00;92887.84;5033251;28;19967;-86
2021/01/11 09:46:59;;;;;;;22.58;10.65;;;;;;;2.03;100.00;92857.53;5033493;28;20048;-89
2021/01/11 09:49:26;;;;;;;25.85;13.55;;;;;;;2.21;100.00;92875.00;5033391;28;20057;-88
2021/01/11 09:51:52;;;;;;;21.20;12.23;;;;;;;2.23;100.00;92881.47;5033233;28;20421;-88
2021/01/11 09:54:20;;;;;;;32.00;12.50;;;;;;;2.23;100.00;92873.09;5033122;28;20065;-88
2021/01/11 09:56:46;;;;;;;20.17;12.27;;;;;;;2.35;100.00;92883.63;5032811;28;20520;-87
2021/01/11 09:59:14;;;;;;;34.03;14.98;;;;;;;2.49;100.00;92882.13;5033751;28;20049;-88
2021/01/11 10:01:41;;;;;;;28.17;15.45;;;;;;;2.61;100.00;92885.06;5033875;28;20453;-89
2021/01/11 10:04:08;;;;;;;28.48;16.17;;;;;;;2.57;100.00;92876.22;5033790;28;20057;-88
2021/01/11 10:06:42;;;;;;;24.88;14.05;;;;;;;2.50;100.00;92876.13;5033266;28;20052;-88
2021/01/11 10:09:09;;;;;;;27.75;15.30;;;;;;;2.30;100.00;92868.16;5032829;28;20081;-88
2021/01/11 10:11:37;;;;;;;28.08;14.25;;;;;;;2.43;100.00;92867.59;5032882;28;20421;-87
2021/01/11 10:14:04;;;;;;;26.90;14.70;;;;;;;2.51;100.00;92857.41;5032589;28;20057;-87
2021/01/11 10:16:30;;;;;;;22.10;11.63;;;;;;;2.70;100.00;92853.66;5032501;28;20053;-87
2021/01/11 10:18:56;;;;;;;;;;;;;;;2.91;100.00;92858.06;5033079;28;20076;-88
2021/01/11 10:21:23;;;;;;;27.45;13.05;;;;;;;2.87;100.00;92848.44;5032808;28;19925;-86
2021/01/11 10:23:49;;;;;;;28.95;14.93;;;;;;;2.85;100.00;92837.66;5032387;28;20053;-87
2021/01/11 10:26:19;;;;;;;;;;;;;;;2.99;100.00;92848.81;5032819;28;20053;-86
2021/01/11 10:28:47;;;;;;;24.20;12.27;;;;;;;2.99;100.00;92849.59;5032334;28;19921;-87
2021/01/11 10:31:14;;;;;;;20.98;13.18;;;;;;;2.96;100.00;92836.47;5032242;28;20103;-87
2021/01/11 10:33:40;;;;;;;;;;;;;;;3.04;100.00;92854.16;5032810;28;20053;-85
2021/01/11 10:36:06;;;;;;;23.70;13.85;;;;;;;3.05;100.00;92845.56;5032585;28;19921;-86
2021/01/11 10:38:32;;;;;;;18.35;9.48;;;;;;;3.07;100.00;92866.50;5032311;28;20060;-85
2021/01/11 10:40:58;;;;;;;;;;;;;;;3.06;100.00;92863.16;5032550;28;21072;-85
2021/01/11 10:43:25;;;;;;;16.98;9.48;;;;;;;2.72;100.00;92861.84;5031806;28;19921;-88
2021/01/11 10:45:52;;;;;;;14.20;7.43;;;;;;;2.34;100.00;92826.31;5031965;28;20049;-83
2021/01/11 10:48:18;;;;;;;13.57;7.40;;;;;;;2.41;100.00;92844.97;5032319;28;20414;-86
2021/01/11 10:50:44;;;;;;;;;;;;;;;2.29;100.00;92857.22;5032902;28;20500;-86
2021/01/11 10:53:12;;;;;;;12.48;6.88;;;;;;;2.21;100.00;92863.13;5031841;28;19925;-87
2021/01/11 10:55:38;;;;;;;15.70;7.93;;;;;;;2.10;100.00;92853.38;5031792;28;20057;-86
2021/01/11 10:58:04;;;;;;;;;;;;;;;2.21;100.00;92883.41;5032355;28;20061;-84
2021/01/11 11:00:30;;;;;;;5.68;4.40;;;;;;;2.04;100.00;92885.22;5031949;28;19921;-86
2021/01/11 11:02:58;;;;;;;11.90;6.38;;;;;;;2.01;100.00;92857.69;5031650;28;20587;-89
2021/01/11 11:05:24;;;;;;;11.50;6.15;;;;;;;2.03;100.00;92868.44;5032589;28;20053;-88
2021/01/11 11:07:52;;;;;;;;;;;;;;;2.09;100.00;92892.34;5032527;28;20045;-89
2021/01/11 11:10:19;;;;;;;5.47;3.90;;;;;;;2.03;100.00;92855.00;5031512;28;19924;-89
2021/01/11 11:12:45;;;;;;;9.50;3.67;;;;;;;2.03;100.00;92853.25;5033417;28;20127;-90
2021/01/11 11:15:12;;;;;;;;;;;;;;;2.10;100.00;92864.31;5032336;28;20045;-90
2021/01/11 11:17:38;;;;;;;6.60;3.22;;;;;;;2.24;100.00;92857.75;5031359;28;19921;-89
2021/01/11 11:20:06;;;;;;;;;;;;;;;2.38;100.00;92846.09;5031885;28;20045;-88
2021/01/11 11:22:32;;;;;;;7.90;4.10;;;;;;;2.49;100.00;92839.84;5031312;28;19933;-89
2021/01/11 11:25:05;;;;;;;;;;;;;;;2.63;100.00;92840.03;5031719;28;20448;-89
2021/01/11 11:27:31;;;;;;;3.47;2.33;;;;;;;2.77;100.00;92856.28;5031261;28;19921;-88
2021/01/11 11:29:58;;;;;;;10.15;5.07;;;;;;;2.87;100.00;92856.06;5031402;28;20053;-88
2021/01/11 11:32:24;;;;;;;7.82;3.78;;;;;;;2.79;100.00;92854.38;5031328;28;20966;-85
2021/01/11 11:34:50;;;;;;;6.93;4.47;;;;;;;2.81;100.00;92849.91;5031142;28;20049;-87
2021/01/11 11:37:19;;;;;;;5.10;2.97;;;;;;;2.79;100.00;92829.78;5031091;28;20460;-88
2021/01/11 11:39:46;;;;;;;13.35;5.80;;;;;;;2.89;100.00;92841.44;5031057;28;20092;-87
2021/01/11 11:42:12;;;;;;;48.58;17.00;;;;;;;2.93;100.00;92835.06;5049476;28;20091;-87
2021/01/11 11:44:38;;;;;;;;;;;;;;;2.96;100.00;92824.56;5051276;28;20056;-87
2021/01/11 11:47:05;;;;;;;10.30;5.43;;;;;;;3.02;100.00;92821.34;5050966;28;19924;-88